KFEP/FEP METAR and TAF weather

Enter ICAO airport designator
Station Type Date Time Source
KFEP METAR 2022/06/30 00:55 UTC NOAA

KFEP 300055Z AUTO 17005KT 10SM CLR 26/23 A3011 RMK AO2 T02610228


Station Type Date Time Source
KFEP Decoded METAR 2022/06/30 00:55 UTC NOAA

Freeport, Albertus Airport, IL, United States (KFEP) 42-14-47N 089-34-56W
Jun 29, 2022 - 08:55 PM EDT / 2022.06.30 0055 UTC
Wind: from the S (170 degrees) at 6 MPH (5 KT):0
Visibility: 10 mile(s):0
Sky conditions: clear
Temperature: 79.0 F (26.1 C)
Dew Point: 73.0 F (22.8 C)
Relative Humidity: 82%
Pressure (altimeter): 30.11 in. Hg (1019 hPa)
ob: KFEP 300055Z AUTO 17005KT 10SM CLR 26/23 A3011 RMK AO2 T02610228
cycle: 1

Station Type Date Time Source
KFEP TAF UTC NOAA

Error!

Example: see airport list